Time;durP1;ratioP1;P1;durP2;ratioP2;P2;SDS_P1;SDS_P2;PMS_P1;PMS_P2;Temp;Humidity;BMP_temperature;BMP_pressure;BME280_temperature;BME280_humidity;BME280_pressure;Samples;Min_cycle;Max_cycle;Signal;HPM_P1;HPM_P2
2023/05/17 00:00:08;;;;;;;3.00;1.90;;;8.40;99.90;;;;;;5096109;28;20190;-51
2023/05/17 00:02:34;;;;;;;3.10;1.80;;;8.40;99.90;;;;;;5095674;28;20693;-49
2023/05/17 00:05:00;;;;;;;5.40;2.17;;;8.30;99.90;;;;;;5095997;28;20220;-49
2023/05/17 00:07:25;;;;;;;2.43;1.67;;;8.30;99.90;;;;;;5095777;28;20230;-51
2023/05/17 00:09:51;;;;;;;5.50;2.30;;;8.20;99.90;;;;;;5111400;28;20204;-51
2023/05/17 00:12:16;;;;;;;5.87;2.00;;;8.20;99.90;;;;;;5095517;28;20190;-50
2023/05/17 00:14:42;;;;;;;4.27;2.07;;;8.10;99.90;;;;;;5095572;28;20186;-51
2023/05/17 00:17:08;;;;;;;4.80;1.90;;;8.10;99.90;;;;;;5095727;28;20323;-50
2023/05/17 00:19:33;;;;;;;6.43;2.40;;;8.10;99.90;;;;;;5096033;28;20185;-51
2023/05/17 00:21:59;;;;;;;5.23;1.97;;;8.10;99.90;;;;;;5095407;28;20190;-51
2023/05/17 00:24:26;;;;;;;4.17;2.10;;;8.10;99.90;;;;;;5095191;28;20212;-50
2023/05/17 00:26:51;;;;;;;5.80;2.57;;;8.10;99.90;;;;;;5095603;28;20183;-52
2023/05/17 00:29:17;;;;;;;5.63;2.73;;;8.10;99.90;;;;;;5094914;28;20188;-50
2023/05/17 00:31:42;;;;;;;7.43;2.67;;;8.10;99.90;;;;;;5095143;28;20668;-51
2023/05/17 00:34:08;;;;;;;5.77;2.43;;;8.10;99.90;;;;;;5095057;28;20206;-51
2023/05/17 00:36:34;;;;;;;9.93;2.50;;;8.10;99.90;;;;;;5095678;28;20204;-51
2023/05/17 00:38:59;;;;;;;6.43;2.30;;;8.00;99.90;;;;;;5095072;28;20698;-50
2023/05/17 00:41:25;;;;;;;6.33;2.10;;;8.00;99.90;;;;;;5095609;28;20212;-52
2023/05/17 00:43:51;;;;;;;7.23;2.33;;;8.00;99.90;;;;;;5095247;28;20220;-51
2023/05/17 00:46:16;;;;;;;7.33;2.37;;;8.00;99.90;;;;;;5093600;28;20302;-51
2023/05/17 00:48:42;;;;;;;7.10;2.23;;;8.00;99.90;;;;;;5094874;28;20182;-45
2023/05/17 00:51:08;;;;;;;6.20;2.60;;;7.90;99.90;;;;;;5094841;28;20186;-43
2023/05/17 00:53:35;;;;;;;5.43;2.60;;;7.90;99.90;;;;;;5093745;28;20305;-43
2023/05/17 00:56:02;;;;;;;6.67;2.67;;;7.90;99.90;;;;;;5094955;28;20182;-44
2023/05/17 00:58:28;;;;;;;7.10;2.50;;;7.90;99.90;;;;;;5094684;28;20178;-43
2023/05/17 01:00:54;;;;;;;9.60;2.77;;;7.80;99.90;;;;;;5094616;28;20188;-43
2023/05/17 01:03:21;;;;;;;6.83;2.40;;;7.80;99.90;;;;;;5094819;28;20221;-43
2023/05/17 01:05:47;;;;;;;6.83;2.60;;;7.80;99.90;;;;;;5094683;28;20215;-44
2023/05/17 01:08:13;;;;;;;4.47;2.10;;;7.80;99.90;;;;;;5094496;28;20205;-42
2023/05/17 01:10:53;;;;;;;5.47;2.63;;;7.70;99.90;;;;;;5094684;28;20675;-43
2023/05/17 01:13:25;;;;;;;5.57;2.53;;;7.70;99.90;;;;;;5094335;28;20201;-45
2023/05/17 01:16:01;;;;;;;4.50;2.47;;;7.70;99.90;;;;;;5094631;28;20576;-43
2023/05/17 01:18:41;;;;;;;5.90;2.63;;;7.60;99.90;;;;;;5094653;28;20207;-43
2023/05/17 01:21:29;;;;;;;8.90;2.87;;;7.60;99.90;;;;;;5094464;28;20167;-43
2023/05/17 01:24:11;;;;;;;3.47;2.60;;;7.60;99.90;;;;;;5094281;28;20204;-45
2023/05/17 01:26:43;;;;;;;5.63;2.33;;;7.60;99.90;;;;;;5094363;28;20201;-43
2023/05/17 01:29:10;;;;;;;10.93;2.93;;;7.50;99.90;;;;;;5094353;28;20190;-43
2023/05/17 01:31:36;;;;;;;7.90;2.80;;;7.50;99.90;;;;;;5094278;28;20176;-43
2023/05/17 01:34:08;;;;;;;6.37;2.77;;;7.50;99.90;;;;;;5093996;28;20205;-45
2023/05/17 01:36:34;;;;;;;4.57;2.87;;;7.40;99.90;;;;;;5093086;28;20175;-45
2023/05/17 01:39:00;;;;;;;8.07;3.20;;;7.40;99.90;;;;;;5094832;28;20202;-43
2023/05/17 01:41:32;;;;;;;8.80;3.33;;;7.40;99.90;;;;;;5094194;28;20691;-44
2023/05/17 01:44:20;;;;;;;11.13;3.13;;;7.40;99.90;;;;;;5092889;28;20567;-44
2023/05/17 01:46:46;;;;;;;4.43;2.27;;;7.40;99.90;;;;;;5094049;28;20700;-45
2023/05/17 01:49:22;;;;;;;10.67;3.93;;;7.30;99.90;;;;;;5093825;28;20170;-44
2023/05/17 01:51:54;;;;;;;8.53;2.77;;;7.30;99.90;;;;;;5094308;28;20263;-43
2023/05/17 01:54:27;;;;;;;4.17;2.40;;;7.30;99.90;;;;;;5093932;28;20207;-44
2023/05/17 01:56:57;;;;;;;7.00;3.00;;;7.30;99.90;;;;;;5094039;28;20297;-44
2023/05/17 01:59:25;;;;;;;5.63;2.90;;;7.30;99.90;;;;;;5093938;28;20182;-46
2023/05/17 02:02:02;;;;;;;6.13;2.70;;;7.20;99.90;;;;;;5093889;28;20521;-43
2023/05/17 02:04:29;;;;;;;5.00;2.77;;;7.20;99.90;;;;;;5093711;28;20229;-44
2023/05/17 02:06:54;;;;;;;5.80;2.63;;;7.20;99.90;;;;;;5094083;28;20176;-44
2023/05/17 02:09:20;;;;;;;4.83;2.70;;;7.10;99.90;;;;;;5093608;28;20513;-46
2023/05/17 02:11:45;;;;;;;8.73;2.93;;;7.10;99.90;;;;;;5093761;28;20180;-43
2023/05/17 02:14:11;;;;;;;5.10;2.90;;;7.00;99.90;;;;;;5093609;28;20196;-43
2023/05/17 02:16:36;;;;;;;9.50;2.93;;;7.00;99.90;;;;;;5093370;28;20269;-43
2023/05/17 02:19:02;;;;;;;6.40;3.07;;;7.00;99.90;;;;;;5093463;28;20187;-43
2023/05/17 02:21:28;;;;;;;5.03;2.50;;;7.00;99.90;;;;;;5093668;28;20183;-42
2023/05/17 02:23:53;;;;;;;5.80;2.80;;;7.00;99.90;;;;;;5093319;28;20725;-43
2023/05/17 02:26:19;;;;;;;6.63;2.70;;;6.90;99.90;;;;;;5093627;28;20214;-44
2023/05/17 02:28:45;;;;;;;8.40;3.00;;;6.90;99.90;;;;;;5094147;28;20190;-43
2023/05/17 02:31:11;;;;;;;8.47;2.93;;;6.90;99.90;;;;;;5098214;28;20171;-40
2023/05/17 02:33:37;;;;;;;7.80;3.33;;;6.90;99.90;;;;;;5114955;28;20203;-45
2023/05/17 02:36:03;;;;;;;8.97;3.50;;;6.90;99.90;;;;;;5093918;28;20536;-46
2023/05/17 02:38:28;;;;;;;9.57;3.67;;;6.90;99.90;;;;;;5093303;28;20175;-44
2023/05/17 02:40:54;;;;;;;6.80;2.80;;;6.90;99.90;;;;;;5093251;28;20198;-44
2023/05/17 02:43:19;;;;;;;10.77;3.80;;;6.80;99.90;;;;;;5093476;28;20200;-43
2023/05/17 02:45:45;;;;;;;9.87;3.40;;;6.80;99.90;;;;;;5093535;28;20241;-45
2023/05/17 02:48:10;;;;;;;6.70;3.43;;;6.80;99.90;;;;;;5094233;28;20193;-44
2023/05/17 02:50:36;;;;;;;10.03;3.10;;;6.70;99.90;;;;;;5094594;28;20591;-45
2023/05/17 02:53:02;;;;;;;9.07;4.13;;;6.80;99.90;;;;;;5098593;28;20191;-46
2023/05/17 02:55:27;;;;;;;9.00;4.13;;;6.70;99.90;;;;;;5097469;28;20179;-44
2023/05/17 02:57:53;;;;;;;10.83;3.57;;;6.70;99.90;;;;;;5097269;28;20655;-43
2023/05/17 03:00:19;;;;;;;8.17;3.63;;;6.70;99.90;;;;;;5096908;28;20681;-43
2023/05/17 03:02:44;;;;;;;8.83;3.93;;;6.70;99.90;;;;;;5096974;28;20191;-45
2023/05/17 03:05:10;;;;;;;9.33;4.13;;;6.70;99.90;;;;;;5096851;28;20558;-43
2023/05/17 03:07:35;;;;;;;11.77;4.13;;;6.70;99.90;;;;;;5097391;28;20230;-43
2023/05/17 03:10:01;;;;;;;10.57;3.97;;;6.70;99.90;;;;;;5096744;28;20270;-44
2023/05/17 03:12:26;;;;;;;12.40;4.50;;;6.70;99.90;;;;;;5096683;28;20179;-45
2023/05/17 03:14:52;;;;;;;7.57;3.87;;;6.70;99.90;;;;;;5096699;28;20180;-42
2023/05/17 03:17:18;;;;;;;7.10;3.93;;;6.70;99.90;;;;;;5096995;28;20175;-44
2023/05/17 03:19:43;;;;;;;10.10;4.10;;;6.60;99.90;;;;;;5096502;28;20218;-43
2023/05/17 03:22:09;;;;;;;8.60;4.53;;;6.60;99.90;;;;;;5096465;28;20186;-42
2023/05/17 03:24:35;;;;;;;8.87;3.90;;;6.70;99.90;;;;;;5096476;28;20175;-43
2023/05/17 03:27:00;;;;;;;9.50;4.10;;;6.60;99.90;;;;;;5096579;28;20172;-43
2023/05/17 03:29:26;;;;;;;8.03;4.23;;;6.60;99.90;;;;;;5096938;28;20175;-44
2023/05/17 03:31:51;;;;;;;11.53;4.40;;;6.60;99.90;;;;;;5096343;28;20178;-44
2023/05/17 03:34:17;;;;;;;15.43;5.27;;;6.60;99.90;;;;;;5096892;28;20199;-43
2023/05/17 03:36:43;;;;;;;6.90;3.90;;;6.60;99.90;;;;;;5096444;28;20182;-42
2023/05/17 03:39:08;;;;;;;10.57;4.43;;;6.60;99.90;;;;;;5096476;28;20191;-45
2023/05/17 03:41:34;;;;;;;9.50;3.80;;;6.60;99.90;;;;;;5096844;28;20299;-43
2023/05/17 03:44:00;;;;;;;9.50;4.00;;;6.60;99.90;;;;;;5096541;28;20567;-44
2023/05/17 03:46:25;;;;;;;8.77;3.80;;;6.60;99.90;;;;;;5097799;28;20207;-43
2023/05/17 03:48:51;;;;;;;9.13;4.13;;;6.60;99.90;;;;;;5098483;28;20170;-45
2023/05/17 03:51:17;;;;;;;12.93;4.70;;;6.60;99.90;;;;;;5099145;28;20175;-42
2023/05/17 03:53:42;;;;;;;8.43;3.87;;;6.50;99.90;;;;;;5099569;28;20693;-44
2023/05/17 03:56:09;;;;;;;10.93;3.80;;;6.50;99.90;;;;;;5095471;28;20186;-46
2023/05/17 03:58:35;;;;;;;6.57;3.80;;;6.40;99.90;;;;;;5096143;28;20178;-45
2023/05/17 04:01:01;;;;;;;13.63;4.10;;;6.40;99.90;;;;;;5095867;28;20248;-43
2023/05/17 04:03:27;;;;;;;7.30;3.97;;;6.40;99.90;;;;;;5094814;28;20661;-44
2023/05/17 04:05:52;;;;;;;11.47;4.57;;;6.40;99.90;;;;;;5095655;28;20249;-44
2023/05/17 04:08:18;;;;;;;10.37;4.23;;;6.40;99.90;;;;;;5095789;28;20197;-44
2023/05/17 04:10:43;;;;;;;9.60;3.87;;;6.40;99.90;;;;;;5095781;28;20178;-44
2023/05/17 04:13:09;;;;;;;7.87;3.77;;;6.40;99.90;;;;;;5095679;28;20562;-44
2023/05/17 04:15:35;;;;;;;9.37;3.93;;;6.40;99.90;;;;;;5096139;28;20711;-43
2023/05/17 04:18:01;;;;;;;6.83;4.00;;;6.40;99.90;;;;;;5095859;28;20535;-45
2023/05/17 04:20:26;;;;;;;9.90;4.27;;;6.40;99.90;;;;;;5095770;28;20190;-43
2023/05/17 04:22:52;;;;;;;11.30;4.47;;;6.50;99.90;;;;;;5095399;28;20230;-44
2023/05/17 04:25:18;;;;;;;11.43;4.53;;;6.40;99.90;;;;;;5095529;28;20207;-46
2023/05/17 04:27:45;;;;;;;9.67;4.47;;;6.50;99.90;;;;;;5095545;28;20171;-44
2023/05/17 04:30:11;;;;;;;12.23;4.60;;;6.50;99.90;;;;;;5095629;28;20588;-45
2023/05/17 04:32:37;;;;;;;8.77;4.10;;;6.60;99.90;;;;;;5095602;28;20194;-44
2023/05/17 04:35:03;;;;;;;8.07;4.30;;;6.60;99.90;;;;;;5095407;28;20259;-49
2023/05/17 04:37:29;;;;;;;7.37;4.10;;;6.60;99.90;;;;;;5095385;28;20190;-50
2023/05/17 04:39:55;;;;;;;11.50;4.70;;;6.70;99.90;;;;;;5094974;28;20186;-49
2023/05/17 04:42:20;;;;;;;9.27;4.47;;;6.70;99.90;;;;;;5094941;28;20187;-48
2023/05/17 04:44:46;;;;;;;13.83;5.07;;;6.80;99.90;;;;;;5095101;28;20551;-49
2023/05/17 04:47:12;;;;;;;9.90;4.80;;;6.90;99.90;;;;;;5094976;28;20609;-51
2023/05/17 04:49:37;;;;;;;19.10;5.53;;;7.00;99.90;;;;;;5095088;28;20175;-48
2023/05/17 04:52:03;;;;;;;13.47;6.07;;;7.00;99.90;;;;;;5094753;28;20176;-50
2023/05/17 04:54:29;;;;;;;11.97;5.20;;;7.10;99.90;;;;;;5093342;28;20198;-50
2023/05/17 04:56:55;;;;;;;10.53;5.90;;;7.10;99.90;;;;;;5094932;28;20179;-49
2023/05/17 04:59:20;;;;;;;12.23;5.90;;;7.20;99.90;;;;;;5094722;28;20175;-51
2023/05/17 05:01:46;;;;;;;14.13;6.13;;;7.30;99.90;;;;;;5094999;28;20585;-48
2023/05/17 05:04:12;;;;;;;15.67;5.23;;;7.40;99.90;;;;;;5094528;28;20216;-48
2023/05/17 05:06:37;;;;;;;13.93;5.70;;;7.40;99.90;;;;;;5094750;28;20233;-50
2023/05/17 05:09:03;;;;;;;15.40;6.47;;;7.50;99.90;;;;;;5094662;28;20224;-50
2023/05/17 05:11:30;;;;;;;11.90;5.53;;;7.50;99.90;;;;;;5094460;28;20182;-49
2023/05/17 05:13:56;;;;;;;14.13;5.37;;;7.60;99.90;;;;;;5094305;28;20187;-48
2023/05/17 05:16:23;;;;;;;14.47;5.93;;;7.70;99.90;;;;;;5094020;28;20179;-49
2023/05/17 05:18:49;;;;;;;16.00;5.87;;;8.70;99.90;;;;;;5094632;28;20235;-49
2023/05/17 05:21:14;;;;;;;10.40;6.07;;;7.80;99.90;;;;;;5094321;28;20574;-49
2023/05/17 05:23:40;;;;;;;16.37;6.07;;;7.90;99.90;;;;;;5094189;28;20202;-48
2023/05/17 05:26:05;;;;;;;15.33;6.63;;;7.90;99.90;;;;;;5094119;28;20206;-49
2023/05/17 05:28:31;;;;;;;14.53;5.93;;;8.00;99.90;;;;;;5094726;28;20202;-49
2023/05/17 05:30:58;;;;;;;16.20;7.00;;;8.10;99.90;;;;;;5097468;28;20179;-49
2023/05/17 05:33:24;;;;;;;13.03;6.30;;;8.10;99.90;;;;;;5106359;28;20205;-48
2023/05/17 05:35:49;;;;;;;12.17;5.63;;;8.20;99.90;;;;;;5100483;28;20257;-49
2023/05/17 05:38:15;;;;;;;15.60;6.77;;;8.20;99.90;;;;;;5094710;28;20508;-49
2023/05/17 05:40:41;;;;;;;10.47;6.13;;;8.20;99.90;;;;;;5094171;28;20199;-47
2023/05/17 05:43:06;;;;;;;17.07;7.07;;;8.30;99.90;;;;;;5094038;28;20204;-48
2023/05/17 05:45:32;;;;;;;15.90;7.63;;;8.40;99.90;;;;;;5093827;28;20289;-48
2023/05/17 05:47:58;;;;;;;23.20;6.70;;;8.40;99.90;;;;;;5092672;28;20174;-45
2023/05/17 05:50:23;;;;;;;16.53;6.13;;;8.50;99.90;;;;;;5094339;28;20174;-45
2023/05/17 05:52:49;;;;;;;20.80;7.10;;;8.60;99.90;;;;;;5093667;28;20190;-45
2023/05/17 05:55:14;;;;;;;14.87;5.90;;;8.70;99.90;;;;;;5093809;28;20643;-43
2023/05/17 05:57:40;;;;;;;12.60;6.60;;;8.80;99.90;;;;;;5093948;28;20179;-44
2023/05/17 06:00:06;;;;;;;12.03;6.43;;;8.90;99.90;;;;;;5093707;28;20175;-44
2023/05/17 06:02:32;;;;;;;16.67;7.83;;;8.90;99.90;;;;;;5093624;28;20199;-44
2023/05/17 06:04:57;;;;;;;14.70;6.30;;;9.00;99.90;;;;;;5093960;28;20207;-45
2023/05/17 06:07:23;;;;;;;15.63;6.57;;;9.00;99.90;;;;;;5093897;28;20163;-43
2023/05/17 06:09:48;;;;;;;17.23;6.90;;;9.10;99.90;;;;;;5093902;28;20175;-43
2023/05/17 06:12:15;;;;;;;17.73;7.53;;;9.10;99.90;;;;;;5093563;28;20206;-43
2023/05/17 06:14:40;;;;;;;14.40;7.20;;;9.30;99.90;;;;;;5093642;28;20240;-44
2023/05/17 06:17:06;;;;;;;16.67;7.50;;;9.30;99.90;;;;;;5093658;28;20640;-45
2023/05/17 06:19:32;;;;;;;21.00;6.83;;;9.40;99.90;;;;;;5093819;28;20655;-41
2023/05/17 06:21:57;;;;;;;21.87;7.37;;;9.50;99.90;;;;;;5093762;28;20170;-44
2023/05/17 06:24:23;;;;;;;18.30;7.70;;;9.60;99.90;;;;;;5108983;28;20535;-43
2023/05/17 06:26:48;;;;;;;18.43;7.33;;;9.70;99.90;;;;;;5094256;28;20207;-44
2023/05/17 06:29:14;;;;;;;17.90;6.77;;;9.80;99.90;;;;;;5097625;28;20220;-44
2023/05/17 06:31:40;;;;;;;12.67;7.00;;;9.80;99.90;;;;;;5097909;28;20181;-43
2023/05/17 06:34:05;;;;;;;17.33;6.50;;;9.90;99.90;;;;;;5097551;28;20197;-43
2023/05/17 06:36:31;;;;;;;17.60;5.87;;;10.00;99.90;;;;;;5098023;28;20182;-44
2023/05/17 06:38:56;;;;;;;18.47;6.70;;;10.00;99.90;;;;;;5097566;28;20228;-46
2023/05/17 06:41:22;;;;;;;16.83;6.73;;;10.00;99.90;;;;;;5097506;28;20625;-44
2023/05/17 06:43:47;;;;;;;18.70;5.80;;;10.00;99.90;;;;;;5097312;28;20196;-44
2023/05/17 06:46:13;;;;;;;14.83;6.03;;;10.00;99.90;;;;;;5097285;28;20211;-44
2023/05/17 06:48:39;;;;;;;13.67;5.53;;;10.10;99.90;;;;;;5096132;28;20551;-43
2023/05/17 06:51:04;;;;;;;13.83;5.13;;;10.10;99.90;;;;;;5097433;28;20178;-43
2023/05/17 06:53:30;;;;;;;17.13;5.03;;;10.20;99.90;;;;;;5097456;28;20206;-47
2023/05/17 06:55:55;;;;;;;15.27;4.93;;;10.30;99.90;;;;;;5097581;28;20725;-44
2023/05/17 06:58:21;;;;;;;18.03;4.80;;;10.40;99.90;;;;;;5097334;28;20203;-44
2023/05/17 07:00:47;;;;;;;18.17;5.60;;;10.60;99.90;;;;;;5097258;28;20205;-43
2023/05/17 07:03:12;;;;;;;13.00;4.50;;;10.60;99.90;;;;;;5097468;28;20224;-46
2023/05/17 07:05:38;;;;;;;13.73;4.50;;;10.80;99.90;;;;;;5097081;28;20203;-45
2023/05/17 07:08:03;;;;;;;15.50;4.43;;;10.80;99.90;;;;;;5096998;28;20262;-44
2023/05/17 07:10:29;;;;;;;15.80;4.83;;;10.80;99.90;;;;;;5097255;28;20539;-44
2023/05/17 07:12:55;;;;;;;13.07;4.03;;;10.80;99.90;;;;;;5097109;28;20206;-45
2023/05/17 07:15:20;;;;;;;12.27;4.83;;;10.80;99.90;;;;;;5097038;28;20182;-44
2023/05/17 07:17:46;;;;;;;13.93;4.57;;;10.90;99.90;;;;;;5095805;28;20661;-50
2023/05/17 07:20:12;;;;;;;14.77;4.77;;;11.00;99.90;;;;;;5096805;28;20227;-50
2023/05/17 07:22:38;;;;;;;8.70;4.07;;;11.00;99.90;;;;;;5096866;28;20245;-52
2023/05/17 07:25:04;;;;;;;10.90;4.17;;;11.10;99.90;;;;;;5096465;28;20220;-50
2023/05/17 07:27:30;;;;;;;13.63;4.00;;;11.10;99.90;;;;;;5096806;28;20181;-51
2023/05/17 07:29:55;;;;;;;15.13;4.97;;;11.20;99.90;;;;;;5096536;28;20179;-50
2023/05/17 07:32:21;;;;;;;12.93;4.50;;;11.30;99.90;;;;;;5096397;28;20635;-49
2023/05/17 07:34:46;;;;;;;13.67;4.50;;;11.40;99.90;;;;;;5096649;28;20175;-51
2023/05/17 07:37:12;;;;;;;14.67;3.87;;;11.40;99.90;;;;;;5096897;28;20178;-48
2023/05/17 07:39:37;;;;;;;11.50;4.37;;;11.40;99.90;;;;;;5095933;28;20197;-49
2023/05/17 07:42:03;;;;;;;12.50;4.03;;;11.40;99.90;;;;;;5096270;28;20542;-49
2023/05/17 07:44:29;;;;;;;9.63;3.40;;;11.50;99.90;;;;;;5096642;28;20199;-51
2023/05/17 07:46:54;;;;;;;12.03;3.40;;;11.60;99.90;;;;;;5096481;28;20203;-51
2023/05/17 07:49:22;;;;;;;7.97;3.00;;;11.60;99.90;;;;;;5096195;28;20178;-49
2023/05/17 07:51:48;;;;;;;12.00;3.00;;;11.70;99.90;;;;;;5096095;28;20174;-50
2023/05/17 07:54:25;;;;;;;15.20;3.30;;;11.70;99.90;;;;;;5096059;28;20194;-50
2023/05/17 07:56:52;;;;;;;10.03;3.03;;;11.70;99.90;;;;;;5094974;28;20170;-50
2023/05/17 07:59:18;;;;;;;17.87;2.83;;;11.70;99.90;;;;;;5094644;28;20190;-50
2023/05/17 08:01:43;;;;;;;12.60;2.80;;;11.70;99.90;;;;;;5095969;28;20538;-50
2023/05/17 08:04:09;;;;;;;9.50;2.73;;;11.90;99.90;;;;;;5095708;28;20226;-50
2023/05/17 08:06:34;;;;;;;11.63;2.50;;;12.00;99.90;;;;;;5095710;28;20199;-50
2023/05/17 08:09:00;;;;;;;11.03;2.77;;;12.00;99.90;;;;;;5095791;28;20179;-51
2023/05/17 08:11:26;;;;;;;13.73;2.47;;;11.90;99.90;;;;;;5095715;28;20208;-51
2023/05/17 08:13:51;;;;;;;10.70;2.23;;;11.90;99.90;;;;;;5095962;28;20332;-52
2023/05/17 08:16:17;;;;;;;17.93;3.77;;;11.90;99.90;;;;;;5095691;28;20223;-50
2023/05/17 08:18:43;;;;;;;12.83;2.60;;;12.10;99.90;;;;;;5095701;28;20289;-51
2023/05/17 08:21:09;;;;;;;13.37;2.53;;;12.10;99.90;;;;;;5095943;28;20182;-50
2023/05/17 08:23:35;;;;;;;8.93;2.40;;;12.10;99.90;;;;;;5095668;28;20254;-51
2023/05/17 08:26:01;;;;;;;10.60;2.10;;;12.20;99.90;;;;;;5094158;28;20206;-51
2023/05/17 08:28:27;;;;;;;11.60;2.27;;;12.20;99.90;;;;;;5095646;28;20190;-51
2023/05/17 08:30:52;;;;;;;9.40;2.40;;;12.30;99.90;;;;;;5095596;28;20179;-50
2023/05/17 08:33:21;;;;;;;7.70;2.57;;;12.40;99.90;;;;;;5095507;28;20256;-51
2023/05/17 08:35:47;;;;;;;5.37;2.30;;;12.30;99.90;;;;;;5095197;28;20538;-51
2023/05/17 08:38:13;;;;;;;8.13;2.13;;;12.30;99.90;;;;;;5095209;28;20201;-51
2023/05/17 08:40:39;;;;;;;12.07;2.77;;;12.30;99.90;;;;;;5095000;28;20203;-52
2023/05/17 08:43:07;;;;;;;12.47;3.13;;;12.30;99.90;;;;;;5095361;28;20206;-52
2023/05/17 08:45:33;;;;;;;9.27;2.53;;;12.30;99.90;;;;;;5095626;28;20552;-50
2023/05/17 08:48:00;;;;;;;10.53;2.10;;;12.20;99.90;;;;;;5095021;28;20182;-52
2023/05/17 08:50:28;;;;;;;5.37;1.83;;;12.10;99.90;;;;;;5094387;28;20646;-51
2023/05/17 08:52:57;;;;;;;8.27;2.27;;;12.20;99.90;;;;;;5095555;28;20205;-50
2023/05/17 08:55:24;;;;;;;12.97;2.20;;;12.30;99.90;;;;;;5097370;28;20665;-51
2023/05/17 08:57:50;;;;;;;9.17;2.07;;;12.40;99.90;;;;;;5097627;28;20248;-50
2023/05/17 09:00:20;;;;;;;11.87;2.33;;;12.60;99.90;;;;;;5095166;28;20207;-52
2023/05/17 09:02:46;;;;;;;8.70;2.17;;;12.90;99.90;;;;;;5095423;28;20252;-53
2023/05/17 09:05:12;;;;;;;8.47;2.40;;;13.00;99.90;;;;;;5095026;28;20674;-52
2023/05/17 09:07:38;;;;;;;8.73;1.93;;;13.20;99.90;;;;;;5094931;28;20188;-50
2023/05/17 09:10:04;;;;;;;7.87;2.13;;;13.30;99.90;;;;;;5094944;28;20635;-51
2023/05/17 09:12:34;;;;;;;10.90;2.17;;;13.40;99.90;;;;;;5094690;28;20191;-50
2023/05/17 09:15:21;;;;;;;7.23;1.60;;;13.40;99.90;;;;;;5094513;28;20175;-52
2023/05/17 09:17:54;;;;;;;9.67;2.80;;;13.30;99.90;;;;;;5093132;28;20183;-51
2023/05/17 09:20:23;;;;;;;6.03;1.73;;;13.30;99.90;;;;;;5094448;28;20183;-51
2023/05/17 09:22:50;;;;;;;8.90;2.40;;;13.30;99.90;;;;;;5094544;28;20195;-52
2023/05/17 09:25:25;;;;;;;8.67;2.30;;;13.40;99.90;;;;;;5094364;28;20198;-52
2023/05/17 09:27:59;;;;;;;8.60;2.10;;;13.40;99.90;;;;;;5094773;28;20162;-50
2023/05/17 09:30:28;;;;;;;7.60;2.00;;;13.50;99.90;;;;;;5094744;28;20183;-51
2023/05/17 09:32:56;;;;;;;6.83;2.03;;;13.50;99.90;;;;;;5092781;28;20195;-51
2023/05/17 09:35:31;;;;;;;8.63;1.97;;;13.50;99.90;;;;;;5094353;28;20232;-50
2023/05/17 09:38:06;;;;;;;8.03;2.43;;;13.60;99.90;;;;;;5094581;28;20178;-52
2023/05/17 09:40:31;;;;;;;9.60;1.90;;;13.80;99.90;;;;;;5093855;28;20661;-48
2023/05/17 09:43:00;;;;;;;8.47;2.00;;;14.10;99.90;;;;;;5094068;28;20336;-48
2023/05/17 09:45:26;;;;;;;8.03;1.67;;;14.00;99.90;;;;;;5092621;28;20567;-46
2023/05/17 09:47:52;;;;;;;7.17;1.97;;;14.00;99.90;;;;;;5094214;28;20175;-47
2023/05/17 09:50:20;;;;;;;10.23;2.00;;;14.00;99.90;;;;;;5092570;28;20179;-45
2023/05/17 09:52:45;;;;;;;9.17;2.13;;;13.70;99.90;;;;;;5093761;28;20193;-48
2023/05/17 09:55:11;;;;;;;6.13;1.60;;;13.70;99.90;;;;;;5093797;28;20262;-47
2023/05/17 09:57:39;;;;;;;9.27;1.77;;;13.80;99.90;;;;;;5093668;28;20190;-46
2023/05/17 10:00:12;;;;;;;9.47;2.40;;;13.80;99.90;;;;;;5093927;28;20376;-45
2023/05/17 10:02:41;;;;;;;8.90;2.03;;;13.90;99.90;;;;;;5093857;28;20199;-51
2023/05/17 10:05:14;;;;;;;6.50;2.07;;;14.00;99.90;;;;;;5093579;28;20309;-51
2023/05/17 10:07:40;;;;;;;6.13;2.17;;;14.10;99.90;;;;;;5094503;28;20579;-48
2023/05/17 10:10:07;;;;;;;8.30;2.27;;;14.20;99.90;;;;;;5093808;28;20175;-47
2023/05/17 10:12:34;;;;;;;8.03;2.53;;;14.20;99.90;;;;;;5093742;28;20285;-46
2023/05/17 10:15:01;;;;;;;17.50;2.70;;;14.30;99.90;;;;;;5093475;28;20185;-47
2023/05/17 10:17:30;;;;;;;9.17;2.17;;;14.50;99.90;;;;;;5094219;28;20178;-47
2023/05/17 10:19:57;;;;;;;7.90;1.83;;;14.50;99.90;;;;;;5093713;28;20175;-45
2023/05/17 10:22:23;;;;;;;12.93;2.20;;;14.70;99.90;;;;;;5093346;28;20692;-50
2023/05/17 10:24:50;;;;;;;11.03;2.27;;;14.80;99.90;;;;;;5093556;28;20266;-52
2023/05/17 10:27:16;;;;;;;9.97;2.00;;;14.80;99.90;;;;;;5093660;28;20178;-52
2023/05/17 10:29:43;;;;;;;8.13;1.90;;;14.80;99.90;;;;;;5093337;28;20171;-46
2023/05/17 10:32:12;;;;;;;8.17;2.83;;;15.00;99.90;;;;;;5093566;28;20673;-47
2023/05/17 10:34:38;;;;;;;7.23;1.80;;;15.00;99.90;;;;;;5093336;28;20175;-50
2023/05/17 10:37:05;;;;;;;9.73;2.67;;;15.20;99.90;;;;;;5093386;28;20175;-50
2023/05/17 10:39:33;;;;;;;8.90;2.30;;;15.30;99.90;;;;;;5093520;28;20285;-51
2023/05/17 10:42:02;;;;;;;10.03;2.17;;;15.30;99.90;;;;;;5093336;28;20179;-52
2023/05/17 10:44:32;;;;;;;7.13;2.07;;;15.20;99.90;;;;;;5093310;28;20225;-51
2023/05/17 10:46:59;;;;;;;9.00;3.00;;;15.10;99.90;;;;;;5093408;28;20195;-50
2023/05/17 10:49:30;;;;;;;12.33;2.77;;;15.00;99.90;;;;;;5093211;28;20259;-50
2023/05/17 10:52:15;;;;;;;11.43;2.33;;;15.10;99.90;;;;;;5093479;28;20159;-50
2023/05/17 10:54:43;;;;;;;8.83;2.30;;;15.10;99.90;;;;;;5093171;28;20183;-50
2023/05/17 10:57:19;;;;;;;6.50;2.00;;;15.20;99.90;;;;;;5093044;28;20643;-51
2023/05/17 10:59:56;;;;;;;10.47;2.30;;;15.40;99.90;;;;;;5093439;28;20189;-45
2023/05/17 11:02:23;;;;;;;10.03;2.50;;;15.50;99.90;;;;;;5093043;28;20167;-47
2023/05/17 11:04:54;;;;;;;7.53;2.23;;;15.50;99.90;;;;;;5093086;28;20186;-47
2023/05/17 11:07:25;;;;;;;6.00;2.00;;;15.60;99.90;;;;;;5093622;28;20156;-44
2023/05/17 11:09:54;;;;;;;6.67;2.13;;;15.80;99.90;;;;;;5093590;28;20159;-45
2023/05/17 11:12:41;;;;;;;6.40;1.77;;;15.90;99.90;;;;;;5092857;28;20181;-46
2023/05/17 11:15:13;;;;;;;11.47;2.03;;;15.80;99.90;;;;;;5097021;28;20181;-47
2023/05/17 11:17:52;;;;;;;7.63;2.60;;;15.70;99.90;;;;;;5097012;28;20267;-51
2023/05/17 11:20:23;;;;;;;8.67;2.17;;;15.60;99.90;;;;;;5097000;28;20155;-52
2023/05/17 11:23:01;;;;;;;9.40;2.50;;;15.50;99.90;;;;;;5096549;28;20195;-53
2023/05/17 11:25:31;;;;;;;8.00;2.47;;;15.40;99.90;;;;;;5096840;28;20209;-51
2023/05/17 11:27:58;;;;;;;6.13;1.87;;;15.40;99.90;;;;;;5096549;28;20174;-51
2023/05/17 11:30:31;;;;;;;6.47;1.97;;;15.50;99.90;;;;;;5096714;28;20631;-51
2023/05/17 11:32:59;;;;;;;5.77;2.03;;;15.60;99.90;;;;;;5096347;28;20198;-51
2023/05/17 11:35:31;;;;;;;9.63;2.13;;;15.70;99.90;;;;;;5096710;28;20257;-51
2023/05/17 11:38:26;;;;;;;14.57;3.30;;;15.60;99.90;;;;;;5096415;28;20206;-51
2023/05/17 11:40:53;;;;;;;10.30;2.30;;;15.60;99.90;;;;;;5094921;28;20195;-51
2023/05/17 11:43:21;;;;;;;6.13;1.90;;;15.70;99.90;;;;;;5097187;28;20519;-51
2023/05/17 11:45:51;;;;;;;4.43;1.90;;;15.80;99.90;;;;;;5096380;28;20207;-51
2023/05/17 11:48:19;;;;;;;6.10;1.80;;;15.90;99.90;;;;;;5096174;28;20182;-52
2023/05/17 11:50:46;;;;;;;5.20;1.83;;;16.00;99.90;;;;;;5096159;28;20205;-52
2023/05/17 11:53:12;;;;;;;8.17;2.10;;;16.00;99.90;;;;;;5096234;28;20195;-52
2023/05/17 11:55:43;;;;;;;5.90;2.00;;;15.80;99.90;;;;;;5095977;28;20549;-51
2023/05/17 11:58:12;;;;;;;6.00;2.30;;;15.80;99.90;;;;;;5095949;28;20159;-53
2023/05/17 12:00:41;;;;;;;9.70;2.30;;;15.80;99.90;;;;;;5096457;28;20593;-51
2023/05/17 12:03:27;;;;;;;6.60;1.77;;;15.90;99.90;;;;;;5096045;28;20195;-51
2023/05/17 12:06:05;;;;;;;8.37;2.30;;;16.10;99.90;;;;;;5096055;28;20190;-50
2023/05/17 12:08:35;;;;;;;7.97;2.30;;;16.20;99.90;;;;;;5096055;28;20254;-51
2023/05/17 12:11:02;;;;;;;7.53;1.90;;;16.30;99.90;;;;;;5096016;28;20151;-52
2023/05/17 12:13:29;;;;;;;6.70;1.77;;;16.30;99.90;;;;;;5095618;28;20187;-52
2023/05/17 12:16:04;;;;;;;8.83;2.73;;;16.30;99.90;;;;;;5095878;28;20175;-54
2023/05/17 12:18:37;;;;;;;8.77;2.30;;;16.40;99.90;;;;;;5095847;28;20242;-51
2023/05/17 12:21:03;;;;;;;6.60;2.00;;;16.20;99.90;;;;;;5095396;28;20171;-52
2023/05/17 12:23:42;;;;;;;8.70;2.13;;;16.00;99.90;;;;;;5095591;28;20211;-52
2023/05/17 12:26:16;;;;;;;7.73;1.90;;;15.90;99.90;;;;;;5094557;28;20267;-53
2023/05/17 12:28:55;;;;;;;9.57;2.30;;;16.10;99.90;;;;;;5096267;28;20186;-52
2023/05/17 12:31:42;;;;;;;7.43;1.90;;;16.30;99.90;;;;;;5095536;28;20159;-53
2023/05/17 12:34:09;;;;;;;9.20;2.13;;;16.50;99.90;;;;;;5095426;28;20560;-53
2023/05/17 12:36:38;;;;;;;8.20;2.73;;;16.60;99.90;;;;;;5095392;28;20190;-52
2023/05/17 12:39:08;;;;;;;10.03;2.70;;;16.40;99.90;;;;;;5094879;28;20187;-53
2023/05/17 12:41:34;;;;;;;8.07;2.10;;;16.30;99.90;;;;;;5095346;28;20218;-52
2023/05/17 12:44:00;;;;;;;9.17;2.23;;;16.40;99.90;;;;;;5094907;28;20269;-51
2023/05/17 12:46:27;;;;;;;8.27;1.80;;;16.30;99.90;;;;;;5094871;28;20241;-53
2023/05/17 12:48:54;;;;;;;7.40;1.87;;;16.20;99.90;;;;;;5094869;28;20706;-53